Time;durP1;ratioP1;P1;durP2;ratioP2;P2;SDS_P1;SDS_P2;PMS_P1;PMS_P2;Temp;Humidity;BMP_temperature;BMP_pressure;BME280_temperature;BME280_humidity;BME280_pressure;Samples;Min_cycle;Max_cycle;Signal;HPM_P1;HPM_P2
2022/02/11 00:00:11;;;;;;;;;;;22.60;38.30;;;;;;689037;28;1308;-88
2022/02/11 00:02:18;;;;;;;;;;;22.60;38.20;;;;;;690963;28;858;-82
2022/02/11 00:05:58;;;;;;;;;;;22.50;38.40;;;;;;682964;29;979;-86
2022/02/11 00:07:10;;;;;;;;;;;22.50;38.40;;;;;;680410;29;666;-84
2022/02/11 00:07:31;;;;;;;;;;;22.50;39.60;;;;;;680001;29;935;-84
2022/02/11 00:07:56;;;;;;;;;;;22.50;38.50;;;;;;679955;29;772;-88
2022/02/11 00:08:16;;;;;;;;;;;22.50;38.70;;;;;;677940;29;1228;-86
2022/02/11 00:08:37;;;;;;;;;;;22.50;38.40;;;;;;677979;29;803;-88
2022/02/11 00:08:58;;;;;;;;;;;22.50;38.40;;;;;;677829;29;1437;-86
2022/02/11 00:09:18;;;;;;;;;;;22.50;38.50;;;;;;677901;29;1327;-83
2022/02/11 00:09:42;;;;;;;;;;;22.50;38.60;;;;;;677982;29;839;-85
2022/02/11 00:10:03;;;;;;;;;;;22.40;38.50;;;;;;678042;29;1318;-87
2022/02/11 00:10:25;;;;;;;;;;;22.40;38.50;;;;;;677875;29;1148;-88
2022/02/11 00:10:45;;;;;;;;;;;22.50;38.50;;;;;;678032;29;963;-87
2022/02/11 00:11:06;;;;;;;;;;;22.40;38.50;;;;;;677114;29;780;-87
2022/02/11 00:11:32;;;;;;;;;;;22.40;38.50;;;;;;675399;29;891;-86
2022/02/11 00:11:52;;;;;;;;;;;22.50;38.50;;;;;;676453;29;859;-86
2022/02/11 00:12:14;;;;;;;;;;;22.40;38.90;;;;;;678160;29;831;-89
2022/02/11 00:12:35;;;;;;;;;;;22.50;38.50;;;;;;677924;29;883;-86
2022/02/11 00:12:56;;;;;;;;;;;22.40;38.50;;;;;;677918;29;933;-87
2022/02/11 00:13:17;;;;;;;;;;;22.40;38.50;;;;;;677914;29;835;-88
2022/02/11 00:13:37;;;;;;;;;;;22.40;38.70;;;;;;677576;29;1260;-89
2022/02/11 00:13:58;;;;;;;;;;;22.40;38.50;;;;;;678085;29;1363;-80
2022/02/11 00:14:19;;;;;;;;;;;22.40;39.60;;;;;;677850;29;792;-86
2022/02/11 00:14:49;;;;;;;;;;;22.40;38.50;;;;;;677973;29;1268;-86
2022/02/11 00:15:43;;;;;;;;;;;23.40;39.00;;;;;;678100;29;1314;-85
2022/02/11 00:15:56;;;;;;;;;;;22.40;38.50;;;;;;674708;29;1485;-87
2022/02/11 00:16:17;;;;;;;;;;;22.40;38.50;;;;;;677583;29;1312;-84
2022/02/11 00:16:38;;;;;;;;;;;22.40;38.40;;;;;;677338;29;1457;-88
2022/02/11 00:16:59;;;;;;;;;;;22.40;38.50;;;;;;677606;29;1371;-88
2022/02/11 00:17:19;;;;;;;;;;;22.40;38.50;;;;;;677945;29;931;-87
2022/02/11 00:17:40;;;;;;;;;;;22.40;38.70;;;;;;678063;29;791;-87
2022/02/11 00:18:00;;;;;;;;;;;22.40;38.60;;;;;;677890;29;835;-88
2022/02/11 00:18:21;;;;;;;;;;;22.40;38.70;;;;;;677762;29;1356;-88
2022/02/11 00:18:42;;;;;;;;;;;22.40;38.50;;;;;;677966;29;820;-89
2022/02/11 00:19:02;;;;;;;;;;;22.40;38.70;;;;;;677820;29;946;-88
2022/02/11 00:19:23;;;;;;;;;;;22.40;38.50;;;;;;677880;29;796;-88
2022/02/11 00:19:44;;;;;;;;;;;22.40;38.60;;;;;;678014;29;800;-89
2022/02/11 00:20:04;;;;;;;;;;;22.40;39.00;;;;;;677640;29;1446;-89
2022/02/11 00:20:25;;;;;;;;;;;22.40;38.60;;;;;;677521;29;1307;-89
2022/02/11 00:20:49;;;;;;;;;;;22.40;38.60;;;;;;677564;29;1312;-88
2022/02/11 00:21:11;;;;;;;;;;;22.40;38.60;;;;;;677883;29;1934;-87
2022/02/11 00:21:32;;;;;;;;;;;22.40;38.50;;;;;;677894;29;927;-88
2022/02/11 00:21:53;;;;;;;;;;;22.40;38.60;;;;;;677861;29;955;-88
2022/02/11 00:22:13;;;;;;;;;;;22.30;38.50;;;;;;677963;29;784;-89
2022/02/11 00:22:34;;;;;;;;;;;22.40;38.60;;;;;;677831;29;847;-87
2022/02/11 00:22:55;;;;;;;;;;;22.40;38.50;;;;;;680068;29;1054;-89
2022/02/11 00:23:16;;;;;;;;;;;22.30;38.50;;;;;;680518;29;858;-89
2022/02/11 00:23:38;;;;;;;;;;;22.40;38.60;;;;;;680322;29;1324;-89
2022/02/11 00:23:58;;;;;;;;;;;22.40;38.70;;;;;;680484;29;1358;-88
2022/02/11 00:24:19;;;;;;;;;;;22.30;38.50;;;;;;680367;29;1428;-87
2022/02/11 00:24:39;;;;;;;;;;;22.40;38.70;;;;;;680584;29;839;-87
2022/02/11 00:25:00;;;;;;;;;;;22.30;38.50;;;;;;680505;29;850;-88
2022/02/11 00:25:21;;;;;;;;;;;22.40;38.70;;;;;;680495;29;791;-89
2022/02/11 00:25:48;;;;;;;;;;;22.30;38.60;;;;;;680477;29;1421;-88
2022/02/11 00:26:08;;;;;;;;;;;22.40;38.60;;;;;;677862;29;1373;-86
2022/02/11 00:26:33;;;;;;;;;;;22.30;38.50;;;;;;677891;29;874;-87
2022/02/11 00:27:24;;;;;;;;;;;22.40;38.60;;;;;;678003;29;570;-88
2022/02/11 00:31:04;;;;;;;;;;;22.30;38.70;;;;;;680385;29;883;-88
2022/02/11 00:32:06;;;;;;;;;;;22.30;38.70;;;;;;680615;29;890;-86
2022/02/11 00:33:33;;;;;;;;;;;22.30;38.80;;;;;;680620;29;772;-90
2022/02/11 00:33:56;;;;;;;;;;;22.30;38.90;;;;;;680504;29;796;-90
2022/02/11 00:34:20;;;;;;;;;;;22.30;38.80;;;;;;680632;29;820;-90
2022/02/11 00:34:47;;;;;;;;;;;22.30;38.80;;;;;;680627;29;1373;-90
2022/02/11 00:35:22;;;;;;;;;;;22.30;38.80;;;;;;680531;29;1465;-80
2022/02/11 00:35:50;;;;;;;;;;;22.30;38.80;;;;;;680564;29;1013;-90
2022/02/11 00:36:12;;;;;;;;;;;22.30;38.80;;;;;;680586;29;1477;-88
2022/02/11 00:37:06;;;;;;;;;;;22.30;38.90;;;;;;680392;29;958;-89
2022/02/11 00:37:20;;;;;;;;;;;22.30;39.00;;;;;;680294;29;984;-88
2022/02/11 00:37:41;;;;;;;;;;;22.30;38.90;;;;;;680470;29;823;-89
2022/02/11 00:38:08;;;;;;;;;;;22.30;38.90;;;;;;680348;29;1393;-88
2022/02/11 00:38:52;;;;;;;;;;;22.30;39.00;;;;;;680472;29;895;-88
2022/02/11 00:40:01;;;;;;;;;;;22.30;38.90;;;;;;680450;29;862;-89
2022/02/11 00:40:32;;;;;;;;;;;22.30;38.90;;;;;;680289;29;1217;-89
2022/02/11 00:43:30;;;;;;;;;;;22.30;38.90;;;;;;680989;29;1124;-90
2022/02/11 00:45:49;;;;;;;;;;;22.30;39.00;;;;;;691404;28;723;-90
2022/02/11 01:02:43;;;;;;;;;;;22.20;38.90;;;;;;683055;29;688;-90
2022/02/11 01:03:21;;;;;;;;;;;22.20;38.90;;;;;;683120;29;870;-90
2022/02/11 01:04:04;;;;;;;;;;;22.30;38.90;;;;;;683118;29;820;-89
2022/02/11 01:04:25;;;;;;;;;;;22.20;38.90;;;;;;683109;29;839;-89
2022/02/11 01:04:46;;;;;;;;;;;22.20;39.00;;;;;;683186;29;854;-89
2022/02/11 01:05:07;;;;;;;;;;;22.20;38.90;;;;;;683046;29;918;-89
2022/02/11 01:05:28;;;;;;;;;;;22.20;38.90;;;;;;683094;29;922;-83
2022/02/11 01:05:48;;;;;;;;;;;22.20;39.00;;;;;;683168;29;875;-83
2022/02/11 01:06:09;;;;;;;;;;;22.20;39.50;;;;;;682888;29;1581;-89
2022/02/11 01:06:30;;;;;;;;;;;22.20;38.90;;;;;;683018;29;1139;-88
2022/02/11 01:06:51;;;;;;;;;;;22.20;38.90;;;;;;683033;29;748;-89
2022/02/11 01:07:13;;;;;;;;;;;22.20;38.90;;;;;;683144;29;846;-88
2022/02/11 01:07:33;;;;;;;;;;;22.20;38.80;;;;;;683020;29;808;-85
2022/02/11 01:07:54;;;;;;;;;;;22.20;38.80;;;;;;683055;29;858;-90
2022/02/11 01:08:15;;;;;;;;;;;22.20;38.80;;;;;;683134;29;850;-87
2022/02/11 01:08:36;;;;;;;;;;;22.20;38.90;;;;;;683087;29;807;-87
2022/02/11 01:08:57;;;;;;;;;;;22.20;39.20;;;;;;683037;29;835;-90
2022/02/11 01:09:17;;;;;;;;;;;22.20;38.90;;;;;;683238;29;854;-86
2022/02/11 01:09:40;;;;;;;;;;;22.20;39.20;;;;;;685702;28;1119;-89
2022/02/11 01:10:00;;;;;;;;;;;22.20;38.90;;;;;;685728;28;767;-89
2022/02/11 01:10:22;;;;;;;;;;;22.20;38.90;;;;;;685699;28;946;-89
2022/02/11 01:10:44;;;;;;;;;;;22.20;38.90;;;;;;685839;28;917;-90
2022/02/11 01:11:05;;;;;;;;;;;22.20;38.80;;;;;;685788;28;616;-90
2022/02/11 01:11:50;;;;;;;;;;;22.20;38.80;;;;;;683153;29;677;-90
2022/02/11 01:12:12;;;;;;;;;;;22.20;38.80;;;;;;683186;29;890;-88
2022/02/11 01:12:33;;;;;;;;;;;22.20;39.20;;;;;;683038;29;819;-90
2022/02/11 01:12:54;;;;;;;;;;;22.20;39.00;;;;;;683095;29;888;-90
2022/02/11 01:13:15;;;;;;;;;;;22.20;38.80;;;;;;683241;29;845;-91
2022/02/11 01:13:35;;;;;;;;;;;22.20;39.00;;;;;;683122;29;838;-89
2022/02/11 01:13:56;;;;;;;;;;;22.20;39.00;;;;;;683111;29;855;-89
2022/02/11 01:14:18;;;;;;;;;;;22.20;39.70;;;;;;683144;29;816;-89
2022/02/11 01:14:46;;;;;;;;;;;22.20;39.10;;;;;;685673;28;1278;-89
2022/02/11 01:15:07;;;;;;;;;;;22.30;39.00;;;;;;685627;28;822;-89
2022/02/11 01:15:30;;;;;;;;;;;21.60;38.60;;;;;;685661;28;779;-86
2022/02/11 01:15:57;;;;;;;;;;;22.30;38.90;;;;;;685704;28;811;-89
2022/02/11 01:16:24;;;;;;;;;;;22.30;38.80;;;;;;685723;28;850;-80
2022/02/11 01:16:52;;;;;;;;;;;22.30;38.80;;;;;;683151;29;886;-89
2022/02/11 01:17:36;;;;;;;;;;;22.30;38.90;;;;;;683037;29;867;-90
2022/02/11 01:18:00;;;;;;;;;;;22.30;39.80;;;;;;683139;29;835;-90
2022/02/11 01:18:21;;;;;;;;;;;21.30;38.20;;;;;;683119;29;799;-89
2022/02/11 01:18:48;;;;;;;;;;;22.40;38.70;;;;;;683055;29;1344;-90
2022/02/11 01:20:49;;;;;;;;;;;22.40;38.60;;;;;;672631;29;831;-90
2022/02/11 01:21:21;;;;;;;;;;;22.40;38.50;;;;;;672496;29;1907;-89
2022/02/11 01:21:53;;;;;;;;;;;23.70;39.50;;;;;;672696;29;875;-89
2022/02/11 01:24:09;;;;;;;;;;;22.40;38.30;;;;;;672605;29;883;-89
2022/02/11 01:27:18;;;;;;;;;;;22.40;38.40;;;;;;675256;29;595;-90
2022/02/11 01:27:57;;;;;;;;;;;22.50;38.40;;;;;;675141;29;1654;-89
2022/02/11 01:29:28;;;;;;;;;;;22.50;38.40;;;;;;677631;29;942;-89
2022/02/11 01:31:54;;;;;;;;;;;22.50;38.30;;;;;;680337;29;620;-89
2022/02/11 01:34:52;;;;;;;;;;;22.50;38.20;;;;;;680832;29;909;-89
2022/02/11 01:37:57;;;;;;;;;;;22.50;38.20;;;;;;681000;29;800;-89
2022/02/11 01:38:33;;;;;;;;;;;22.50;38.20;;;;;;681031;29;843;-83
2022/02/11 01:45:29;;;;;;;;;;;22.50;38.30;;;;;;680964;29;677;-88
2022/02/11 01:47:08;;;;;;;;;;;22.50;38.30;;;;;;678415;29;764;-88
2022/02/11 01:51:27;;;;;;;;;;;22.40;38.50;;;;;;678266;29;958;-89
2022/02/11 01:51:49;;;;;;;;;;;22.40;38.60;;;;;;679202;29;1791;-88
2022/02/11 01:56:11;;;;;;;;;;;22.30;38.80;;;;;;670590;29;638;-88
2022/02/11 01:56:44;;;;;;;;;;;22.30;38.80;;;;;;670416;29;859;-88
2022/02/11 01:57:34;;;;;;;;;;;22.30;38.80;;;;;;670463;29;887;-88
2022/02/11 02:00:50;;;;;;;;;;;22.30;38.90;;;;;;670471;29;698;-88
2022/02/11 02:04:00;;;;;;;;;;;22.30;38.90;;;;;;675658;29;681;-87
2022/02/11 02:08:40;;;;;;;;;;;22.20;39.00;;;;;;675541;29;603;-88
2022/02/11 02:11:59;;;;;;;;;;;22.20;38.90;;;;;;672980;29;674;-88
2022/02/11 02:13:00;;;;;;;;;;;22.20;39.00;;;;;;673006;29;627;-88
2022/02/11 02:22:19;;;;;;;;;;;22.10;39.10;;;;;;670328;29;995;-90
2022/02/11 02:25:17;;;;;;;;;;;22.20;39.20;;;;;;667917;29;1030;-86
2022/02/11 02:27:44;;;;;;;;;;;22.20;40.30;;;;;;667930;29;682;-89
2022/02/11 02:28:41;;;;;;;;;;;22.10;39.10;;;;;;667842;29;939;-88
2022/02/11 02:33:53;;;;;;;;;;;22.10;39.10;;;;;;667967;29;718;-87
2022/02/11 02:36:52;;;;;;;;;;;22.10;39.10;;;;;;667625;29;1354;-89
2022/02/11 02:38:23;;;;;;;;;;;22.10;39.10;;;;;;665243;29;1049;-88
2022/02/11 02:56:50;;;;;;;;;;;22.10;39.10;;;;;;676325;29;970;-79
2022/02/11 02:57:23;;;;;;;;;;;22.10;39.10;;;;;;676206;29;1369;-79
2022/02/11 02:57:49;;;;;;;;;;;22.10;39.10;;;;;;676351;29;789;-79
2022/02/11 02:58:16;;;;;;;;;;;22.10;39.10;;;;;;676281;29;736;-82
2022/02/11 02:58:45;;;;;;;;;;;22.10;39.20;;;;;;676187;29;975;-81
2022/02/11 02:59:20;;;;;;;;;;;22.10;39.10;;;;;;681297;29;1094;-82
2022/02/11 03:00:26;;;;;;;;;;;22.10;39.20;;;;;;681277;29;1318;-85
2022/02/11 03:01:10;;;;;;;;;;;22.10;39.10;;;;;;680044;29;1114;-88
2022/02/11 03:02:03;;;;;;;;;;;22.10;39.10;;;;;;680095;29;1115;-85
2022/02/11 03:15:28;;;;;;;;;;;22.20;38.60;;;;;;679194;29;1055;-89
2022/02/11 03:34:39;;;;;;;;;;;22.30;38.00;;;;;;683941;29;609;-87
2022/02/11 03:35:25;;;;;;;;;;;22.30;37.60;;;;;;683133;29;1415;-89
2022/02/11 03:49:32;;;;;;;;;;;22.20;38.30;;;;;;680629;29;1185;-89
2022/02/11 03:50:04;;;;;;;;;;;22.10;38.30;;;;;;680348;29;1150;-88
2022/02/11 03:51:22;;;;;;;;;;;22.10;38.30;;;;;;680288;29;1307;-90
2022/02/11 03:53:44;;;;;;;;;;;22.10;38.30;;;;;;680704;29;669;-87
2022/02/11 03:56:34;;;;;;;;;;;22.10;38.40;;;;;;683038;29;827;-89
2022/02/11 04:24:51;;;;;;;;;;;22.00;38.70;;;;;;691447;28;890;-89
2022/02/11 04:53:44;;;;;;;;;;;21.90;38.60;;;;;;677855;29;1089;-88
2022/02/11 04:55:03;;;;;;;;;;;21.90;38.90;;;;;;677789;29;693;-88
2022/02/11 04:55:26;;;;;;;;;;;21.90;38.70;;;;;;677704;29;871;-89
2022/02/11 04:55:48;;;;;;;;;;;21.90;38.70;;;;;;677864;29;991;-89
2022/02/11 04:56:09;;;;;;;;;;;21.90;38.80;;;;;;677918;29;851;-89
2022/02/11 04:56:33;;;;;;;;;;;21.90;38.90;;;;;;677762;29;800;-89
2022/02/11 04:56:54;;;;;;;;;;;21.90;38.70;;;;;;677733;29;867;-88
2022/02/11 04:59:50;;;;;;;;;;;21.90;38.80;;;;;;677663;29;1298;-88
2022/02/11 05:00:14;;;;;;;;;;;21.90;38.70;;;;;;677830;29;1358;-88
2022/02/11 05:00:38;;;;;;;;;;;21.90;38.60;;;;;;677741;29;855;-88
2022/02/11 05:00:58;;;;;;;;;;;21.90;38.60;;;;;;677664;29;823;-87
2022/02/11 05:01:19;;;;;;;;;;;21.90;38.60;;;;;;677706;29;1910;-87
2022/02/11 05:01:41;;;;;;;;;;;21.90;38.60;;;;;;677800;29;941;-89
2022/02/11 05:02:01;;;;;;;;;;;21.90;38.60;;;;;;674966;29;1387;-89
2022/02/11 05:02:25;;;;;;;;;;;21.90;38.60;;;;;;675189;29;1006;-88
2022/02/11 05:02:47;;;;;;;;;;;21.90;38.70;;;;;;675312;29;820;-88
2022/02/11 05:03:07;;;;;;;;;;;21.90;38.60;;;;;;674983;29;1163;-88
2022/02/11 05:03:28;;;;;;;;;;;21.90;38.60;;;;;;675144;29;839;-87
2022/02/11 05:03:48;;;;;;;;;;;21.90;38.60;;;;;;675797;29;1442;-83
2022/02/11 05:04:09;;;;;;;;;;;21.90;38.60;;;;;;677939;29;780;-88
2022/02/11 05:04:29;;;;;;;;;;;21.90;38.60;;;;;;677722;29;855;-88
2022/02/11 05:04:50;;;;;;;;;;;21.90;38.60;;;;;;674971;29;1130;-89
2022/02/11 05:05:11;;;;;;;;;;;21.90;38.50;;;;;;675265;29;773;-89
2022/02/11 05:05:50;;;;;;;;;;;21.90;38.60;;;;;;675211;29;863;-89
2022/02/11 05:06:12;;;;;;;;;;;21.90;38.50;;;;;;675244;29;808;-89
2022/02/11 05:06:33;;;;;;;;;;;21.90;38.50;;;;;;675367;29;983;-89
2022/02/11 05:06:54;;;;;;;;;;;21.90;38.50;;;;;;677771;29;891;-88
2022/02/11 05:07:14;;;;;;;;;;;21.90;38.50;;;;;;678391;29;1053;-89
2022/02/11 05:07:38;;;;;;;;;;;21.90;38.50;;;;;;678350;29;808;-89
2022/02/11 05:08:01;;;;;;;;;;;21.90;38.40;;;;;;678272;29;816;-89
2022/02/11 05:08:23;;;;;;;;;;;21.90;38.40;;;;;;680865;29;1210;-89
2022/02/11 05:08:44;;;;;;;;;;;22.00;38.40;;;;;;683464;28;999;-89
2022/02/11 05:09:05;;;;;;;;;;;22.00;38.20;;;;;;688895;28;827;-89
2022/02/11 05:09:26;;;;;;;;;;;22.00;38.20;;;;;;685892;28;998;-88
2022/02/11 05:09:46;;;;;;;;;;;22.00;38.20;;;;;;686385;28;768;-89
2022/02/11 05:10:07;;;;;;;;;;;22.00;38.20;;;;;;685703;28;930;-87
2022/02/11 05:10:28;;;;;;;;;;;22.00;38.10;;;;;;683567;29;894;-88
2022/02/11 05:10:50;;;;;;;;;;;22.00;38.20;;;;;;683586;29;1450;-86
2022/02/11 05:11:11;;;;;;;;;;;22.10;38.20;;;;;;684051;28;1465;-89
2022/02/11 05:11:31;;;;;;;;;;;22.10;38.20;;;;;;686211;28;825;-89
2022/02/11 05:11:52;;;;;;;;;;;22.10;38.10;;;;;;686240;28;1338;-89
2022/02/11 05:12:13;;;;;;;;;;;22.10;38.20;;;;;;686271;28;995;-89
2022/02/11 05:12:34;;;;;;;;;;;22.10;38.00;;;;;;686275;28;945;-88
2022/02/11 05:12:54;;;;;;;;;;;22.10;38.10;;;;;;686269;28;878;-88
2022/02/11 05:13:15;;;;;;;;;;;22.10;38.00;;;;;;686391;28;772;-89
2022/02/11 05:13:37;;;;;;;;;;;22.00;38.00;;;;;;686247;28;896;-88
2022/02/11 05:13:57;;;;;;;;;;;22.10;38.10;;;;;;686339;28;886;-80
2022/02/11 05:14:18;;;;;;;;;;;22.00;38.00;;;;;;686253;28;759;-85
2022/02/11 05:14:38;;;;;;;;;;;22.10;38.00;;;;;;686318;28;783;-87
2022/02/11 05:15:00;;;;;;;;;;;22.10;38.00;;;;;;686236;28;985;-88
2022/02/11 05:15:23;;;;;;;;;;;22.10;38.50;;;;;;683521;29;1380;-89
2022/02/11 05:15:44;;;;;;;;;;;22.10;37.90;;;;;;683724;29;796;-89
2022/02/11 05:16:05;;;;;;;;;;;22.10;37.90;;;;;;683534;29;989;-88
2022/02/11 05:16:25;;;;;;;;;;;22.10;37.90;;;;;;683587;29;886;-88
2022/02/11 05:16:46;;;;;;;;;;;22.10;37.90;;;;;;683636;29;788;-88
2022/02/11 05:17:06;;;;;;;;;;;22.10;37.90;;;;;;684134;28;796;-89
2022/02/11 05:17:27;;;;;;;;;;;22.10;37.80;;;;;;686251;28;847;-89
2022/02/11 05:17:51;;;;;;;;;;;22.10;38.30;;;;;;686243;28;804;-78
2022/02/11 05:18:11;;;;;;;;;;;22.10;38.00;;;;;;686299;28;795;-89
2022/02/11 05:18:32;;;;;;;;;;;22.10;37.90;;;;;;686868;28;969;-90
2022/02/11 05:18:53;;;;;;;;;;;22.10;37.80;;;;;;691840;28;890;-90
2022/02/11 05:19:13;;;;;;;;;;;22.10;37.90;;;;;;691977;28;890;-89
2022/02/11 05:19:34;;;;;;;;;;;22.10;37.80;;;;;;691941;28;862;-89
2022/02/11 05:19:54;;;;;;;;;;;22.10;37.80;;;;;;691927;28;775;-89
2022/02/11 05:20:15;;;;;;;;;;;22.10;37.80;;;;;;691957;28;913;-88
2022/02/11 05:20:36;;;;;;;;;;;22.10;37.70;;;;;;691706;28;834;-89
2022/02/11 05:20:57;;;;;;;;;;;22.20;37.80;;;;;;691723;28;1349;-90
2022/02/11 05:21:17;;;;;;;;;;;22.10;38.00;;;;;;691861;28;1902;-89
2022/02/11 05:21:38;;;;;;;;;;;22.10;37.80;;;;;;691858;28;862;-87
2022/02/11 05:21:58;;;;;;;;;;;22.10;37.80;;;;;;691889;28;1436;-88
2022/02/11 05:22:19;;;;;;;;;;;22.10;37.80;;;;;;691914;28;787;-88
2022/02/11 05:22:39;;;;;;;;;;;22.20;37.80;;;;;;691971;28;854;-89
2022/02/11 05:23:04;;;;;;;;;;;22.20;38.20;;;;;;691856;28;918;-89
2022/02/11 05:23:24;;;;;;;;;;;22.20;38.30;;;;;;691778;28;538;-89
2022/02/11 05:23:48;;;;;;;;;;;22.20;38.00;;;;;;691922;28;802;-86
2022/02/11 05:24:08;;;;;;;;;;;23.50;38.50;;;;;;691852;28;1346;-89
2022/02/11 05:24:29;;;;;;;;;;;22.20;37.80;;;;;;691822;28;882;-88
2022/02/11 05:24:49;;;;;;;;;;;22.20;37.80;;;;;;691855;28;795;-88
2022/02/11 05:25:10;;;;;;;;;;;22.20;37.90;;;;;;691843;28;910;-89
2022/02/11 05:25:31;;;;;;;;;;;22.20;37.80;;;;;;691506;28;1004;-89
2022/02/11 05:25:51;;;;;;;;;;;22.20;37.80;;;;;;691628;28;889;-89
2022/02/11 05:26:12;;;;;;;;;;;22.20;37.80;;;;;;691727;28;776;-90
2022/02/11 05:26:32;;;;;;;;;;;22.20;37.70;;;;;;691609;28;1424;-89
2022/02/11 05:26:53;;;;;;;;;;;22.20;37.80;;;;;;691623;28;1223;-89
2022/02/11 05:27:13;;;;;;;;;;;22.20;37.70;;;;;;691796;28;909;-90
2022/02/11 05:27:34;;;;;;;;;;;22.20;37.70;;;;;;691663;28;846;-90
2022/02/11 05:27:55;;;;;;;;;;;22.20;37.80;;;;;;691657;28;831;-89
2022/02/11 05:28:16;;;;;;;;;;;22.20;37.70;;;;;;691651;28;909;-86
2022/02/11 05:28:37;;;;;;;;;;;22.20;37.70;;;;;;691612;28;771;-87
2022/02/11 05:28:57;;;;;;;;;;;22.20;37.80;;;;;;691624;28;908;-79
2022/02/11 05:29:18;;;;;;;;;;;22.20;37.80;;;;;;691741;28;802;-82
2022/02/11 05:29:39;;;;;;;;;;;22.20;37.70;;;;;;691530;28;1389;-81
2022/02/11 05:29:59;;;;;;;;;;;22.20;37.90;;;;;;688796;28;949;-79
2022/02/11 05:30:20;;;;;;;;;;;22.20;37.70;;;;;;688753;28;929;-85
2022/02/11 05:30:41;;;;;;;;;;;22.20;37.70;;;;;;686132;28;1412;-84
2022/02/11 05:31:01;;;;;;;;;;;22.20;37.80;;;;;;686090;28;862;-81
2022/02/11 05:31:22;;;;;;;;;;;22.20;37.80;;;;;;686275;28;803;-84
2022/02/11 05:31:42;;;;;;;;;;;22.20;37.80;;;;;;686527;28;882;-81
2022/02/11 05:32:03;;;;;;;;;;;22.20;37.80;;;;;;689027;28;839;-83
2022/02/11 05:32:24;;;;;;;;;;;22.20;37.80;;;;;;689129;28;891;-83
2022/02/11 05:32:44;;;;;;;;;;;22.20;37.70;;;;;;691892;28;870;-81
2022/02/11 05:33:06;;;;;;;;;;;22.20;38.20;;;;;;691676;28;909;-85
2022/02/11 05:33:27;;;;;;;;;;;22.20;37.80;;;;;;691807;28;862;-83
2022/02/11 05:33:48;;;;;;;;;;;22.20;37.80;;;;;;691843;28;889;-80
2022/02/11 05:34:10;;;;;;;;;;;22.20;37.80;;;;;;691833;28;779;-86
2022/02/11 05:34:30;;;;;;;;;;;22.20;37.80;;;;;;691740;28;819;-85
2022/02/11 05:34:51;;;;;;;;;;;22.20;37.80;;;;;;691746;28;791;-81
2022/02/11 05:35:11;;;;;;;;;;;22.20;37.80;;;;;;691800;28;941;-79
2022/02/11 05:35:32;;;;;;;;;;;22.20;37.80;;;;;;691385;28;1123;-85
2022/02/11 05:35:53;;;;;;;;;;;22.20;37.90;;;;;;691580;28;795;-79
2022/02/11 05:36:14;;;;;;;;;;;22.20;37.80;;;;;;691706;28;786;-84
2022/02/11 05:36:35;;;;;;;;;;;22.20;38.00;;;;;;691490;28;830;-87
2022/02/11 05:36:55;;;;;;;;;;;22.20;38.20;;;;;;691478;28;1331;-79
2022/02/11 05:37:16;;;;;;;;;;;22.20;38.00;;;;;;691682;28;976;-83
2022/02/11 05:37:37;;;;;;;;;;;22.20;38.00;;;;;;691445;28;1519;-86
2022/02/11 05:37:57;;;;;;;;;;;22.20;38.00;;;;;;691521;28;882;-82
2022/02/11 05:38:18;;;;;;;;;;;22.20;38.00;;;;;;691585;28;905;-81
2022/02/11 05:38:38;;;;;;;;;;;22.20;38.20;;;;;;691651;28;945;-83
2022/02/11 05:38:59;;;;;;;;;;;22.20;38.20;;;;;;691559;28;1364;-86
2022/02/11 05:39:19;;;;;;;;;;;22.20;38.10;;;;;;691506;28;790;-86
2022/02/11 05:39:40;;;;;;;;;;;22.10;38.00;;;;;;691772;28;906;-83
2022/02/11 05:40:00;;;;;;;;;;;22.20;38.10;;;;;;691806;28;791;-83
2022/02/11 05:40:21;;;;;;;;;;;22.20;38.20;;;;;;691645;28;985;-79
2022/02/11 05:40:43;;;;;;;;;;;22.10;38.40;;;;;;691880;28;874;-82
2022/02/11 05:41:04;;;;;;;;;;;22.10;38.10;;;;;;691791;28;808;-88
2022/02/11 05:41:24;;;;;;;;;;;22.10;38.10;;;;;;691588;28;1907;-86
2022/02/11 05:41:45;;;;;;;;;;;22.10;38.10;;;;;;691736;28;795;-85
2022/02/11 05:42:06;;;;;;;;;;;22.10;38.10;;;;;;691427;28;1248;-85
2022/02/11 05:42:28;;;;;;;;;;;22.10;38.50;;;;;;691503;28;874;-87
2022/02/11 05:42:49;;;;;;;;;;;22.10;38.20;;;;;;691609;28;858;-86
2022/02/11 05:43:09;;;;;;;;;;;22.10;38.40;;;;;;691664;28;894;-82
2022/02/11 05:43:30;;;;;;;;;;;22.10;38.20;;;;;;691521;28;988;-80
2022/02/11 05:43:50;;;;;;;;;;;22.10;38.40;;;;;;691554;28;878;-82
2022/02/11 05:44:11;;;;;;;;;;;22.10;38.30;;;;;;691793;28;776;-82
2022/02/11 05:44:31;;;;;;;;;;;22.10;38.40;;;;;;691659;28;795;-81
2022/02/11 05:44:52;;;;;;;;;;;22.10;38.30;;;;;;691742;28;795;-83
2022/02/11 05:45:13;;;;;;;;;;;22.10;38.30;;;;;;691878;28;1428;-83
2022/02/11 05:45:33;;;;;;;;;;;22.10;38.30;;;;;;691685;28;862;-80
2022/02/11 05:45:54;;;;;;;;;;;22.10;38.30;;;;;;691698;28;874;-85
2022/02/11 05:46:15;;;;;;;;;;;22.10;38.20;;;;;;691663;28;908;-83
2022/02/11 05:46:35;;;;;;;;;;;22.10;38.20;;;;;;691699;28;811;-82
2022/02/11 05:46:56;;;;;;;;;;;22.10;38.20;;;;;;691709;28;870;-82
2022/02/11 05:47:16;;;;;;;;;;;22.10;38.40;;;;;;691741;28;1330;-86
2022/02/11 05:47:37;;;;;;;;;;;22.10;38.30;;;;;;691684;28;902;-85
2022/02/11 05:47:57;;;;;;;;;;;22.10;38.20;;;;;;691583;28;1054;-84
2022/02/11 05:48:18;;;;;;;;;;;22.10;38.30;;;;;;691940;28;830;-84
2022/02/11 05:48:39;;;;;;;;;;;22.10;38.30;;;;;;691718;28;795;-84
2022/02/11 05:49:00;;;;;;;;;;;22.10;38.30;;;;;;691616;28;1350;-80
2022/02/11 05:49:21;;;;;;;;;;;22.10;38.30;;;;;;691676;28;823;-83
2022/02/11 05:49:42;;;;;;;;;;;22.10;38.30;;;;;;691494;28;862;-82
2022/02/11 05:50:05;;;;;;;;;;;22.10;38.30;;;;;;691412;28;834;-82
2022/02/11 05:50:26;;;;;;;;;;;22.10;38.30;;;;;;691506;28;783;-81
2022/02/11 05:50:46;;;;;;;;;;;22.10;38.40;;;;;;691599;28;764;-81
2022/02/11 05:51:07;;;;;;;;;;;22.10;38.40;;;;;;691528;28;854;-83
2022/02/11 05:51:28;;;;;;;;;;;22.10;38.60;;;;;;691676;28;776;-80
2022/02/11 05:51:48;;;;;;;;;;;22.10;38.50;;;;;;691739;28;965;-81
2022/02/11 05:52:09;;;;;;;;;;;22.10;38.40;;;;;;691715;28;823;-81
2022/02/11 05:52:30;;;;;;;;;;;22.10;38.40;;;;;;691610;28;842;-88
2022/02/11 05:52:50;;;;;;;;;;;22.10;38.40;;;;;;691621;28;957;-80
2022/02/11 05:53:11;;;;;;;;;;;22.10;39.10;;;;;;691697;28;1346;-82
2022/02/11 05:53:32;;;;;;;;;;;22.10;38.50;;;;;;691690;28;822;-81
2022/02/11 05:53:52;;;;;;;;;;;22.10;38.40;;;;;;691641;28;847;-81
2022/02/11 05:54:13;;;;;;;;;;;22.10;38.40;;;;;;691740;28;938;-85
2022/02/11 05:54:33;;;;;;;;;;;22.10;38.50;;;;;;691734;28;787;-84
2022/02/11 05:54:54;;;;;;;;;;;22.10;38.50;;;;;;691608;28;918;-83
2022/02/11 05:55:14;;;;;;;;;;;22.10;38.50;;;;;;691779;28;1000;-87
2022/02/11 05:55:35;;;;;;;;;;;22.10;38.40;;;;;;691670;28;1037;-88
2022/02/11 05:55:55;;;;;;;;;;;22.10;38.40;;;;;;691677;28;787;-82
2022/02/11 05:56:16;;;;;;;;;;;22.10;38.40;;;;;;691955;28;799;-86
2022/02/11 05:56:37;;;;;;;;;;;22.10;38.40;;;;;;691727;28;819;-89
2022/02/11 05:56:57;;;;;;;;;;;22.10;38.40;;;;;;691663;28;1419;-82
2022/02/11 05:57:18;;;;;;;;;;;22.10;38.40;;;;;;691992;28;898;-83
2022/02/11 05:57:38;;;;;;;;;;;22.10;38.40;;;;;;691904;28;795;-86
2022/02/11 05:57:59;;;;;;;;;;;22.10;38.40;;;;;;691583;28;1342;-80
2022/02/11 05:58:19;;;;;;;;;;;22.10;38.40;;;;;;691623;28;918;-86
2022/02/11 05:58:40;;;;;;;;;;;22.10;38.30;;;;;;691896;28;1051;-81
2022/02/11 05:59:03;;;;;;;;;;;22.10;38.40;;;;;;691960;28;959;-79
2022/02/11 05:59:24;;;;;;;;;;;22.10;38.40;;;;;;695337;28;1527;-82
2022/02/11 05:59:44;;;;;;;;;;;22.10;38.50;;;;;;694198;28;1294;-87
2022/02/11 06:00:06;;;;;;;;;;;22.10;38.40;;;;;;695643;28;984;-80
2022/02/11 06:00:26;;;;;;;;;;;22.10;38.40;;;;;;694113;28;1130;-83
2022/02/11 06:00:47;;;;;;;;;;;22.10;38.40;;;;;;694285;28;807;-80
2022/02/11 06:01:08;;;;;;;;;;;22.00;38.30;;;;;;693552;28;882;-81
2022/02/11 06:01:29;;;;;;;;;;;22.10;38.30;;;;;;691718;28;1902;-88
2022/02/11 06:01:49;;;;;;;;;;;22.10;38.30;;;;;;691619;28;932;-84
2022/02/11 06:02:10;;;;;;;;;;;22.10;38.30;;;;;;691705;28;815;-80
2022/02/11 06:02:31;;;;;;;;;;;22.10;38.30;;;;;;691615;28;866;-80
2022/02/11 06:02:51;;;;;;;;;;;22.10;38.40;;;;;;691759;28;851;-87
2022/02/11 06:03:12;;;;;;;;;;;22.10;38.30;;;;;;691869;28;815;-85
2022/02/11 06:03:32;;;;;;;;;;;22.10;38.30;;;;;;691751;28;827;-80
2022/02/11 06:03:53;;;;;;;;;;;22.10;38.30;;;;;;691671;28;838;-80
2022/02/11 06:04:13;;;;;;;;;;;22.10;38.30;;;;;;691661;28;1286;-83
2022/02/11 06:04:34;;;;;;;;;;;22.10;38.30;;;;;;691637;28;796;-80
2022/02/11 06:04:55;;;;;;;;;;;22.10;38.30;;;;;;691634;28;843;-83
2022/02/11 06:05:16;;;;;;;;;;;22.10;38.30;;;;;;691819;28;902;-85
2022/02/11 06:05:37;;;;;;;;;;;22.10;38.30;;;;;;691817;28;834;-83
2022/02/11 06:05:57;;;;;;;;;;;22.10;38.30;;;;;;691548;28;1350;-82
2022/02/11 06:06:18;;;;;;;;;;;22.10;38.30;;;;;;691724;28;798;-84
2022/02/11 06:06:38;;;;;;;;;;;22.10;39.40;;;;;;691824;28;1005;-82